Time;durP1;ratioP1;P1;durP2;ratioP2;P2;SDS_P1;SDS_P2;PMS_P1;PMS_P2;Temp;Humidity;BMP_temperature;BMP_pressure;BME280_temperature;BME280_humidity;BME280_pressure;Samples;Min_cycle;Max_cycle;Signal;HPM_P1;HPM_P2
2021/04/07 00:01:17;;;;;;;5.82;1.25;;;;;;;0.97;87.95;101470.78;4977527;28;20086;-72
2021/04/07 00:03:42;;;;;;;7.80;1.30;;;;;;;0.87;88.71;101469.56;4970306;28;20055;-72
2021/04/07 00:06:08;;;;;;;7.47;1.70;;;;;;;0.80;89.47;101465.53;4983841;28;20793;-72
2021/04/07 00:08:34;;;;;;;9.90;1.50;;;;;;;0.75;89.92;101456.09;4985950;28;20040;-72
2021/04/07 00:10:59;;;;;;;6.75;1.20;;;;;;;0.71;90.01;101461.56;4975741;28;20116;-72
2021/04/07 00:13:25;;;;;;;8.73;1.30;;;;;;;0.35;90.79;101415.09;4962721;28;20532;-72
2021/04/07 00:15:50;;;;;;;9.95;1.70;;;;;;;0.39;91.48;101435.06;4978946;28;20065;-72
2021/04/07 00:18:16;;;;;;;6.13;1.38;;;;;;;0.38;92.41;101447.34;4979042;28;20097;-72
2021/04/07 00:20:41;;;;;;;11.05;2.08;;;;;;;0.38;93.21;101455.22;4978687;28;20181;-72
2021/04/07 00:23:07;;;;;;;7.15;1.40;;;;;;;0.04;93.69;101409.53;4980811;28;20487;-72
2021/04/07 00:25:33;;;;;;;9.25;1.30;;;;;;;0.28;93.66;101454.78;4982223;28;20584;-72
2021/04/07 00:28:02;;;;;;;7.03;1.50;;;;;;;0.27;94.46;101455.72;4976876;28;20575;-72
2021/04/07 00:30:31;;;;;;;8.10;1.40;;;;;;;0.27;95.22;101453.09;4976826;28;20334;-72
2021/04/07 00:32:57;;;;;;;13.43;2.17;;;;;;;0.32;95.46;101442.38;4976205;28;20034;-72
2021/04/07 00:35:24;;;;;;;10.50;1.60;;;;;;;0.36;95.23;101440.44;4981424;28;20061;-72
2021/04/07 00:37:49;;;;;;;6.03;1.33;;;;;;;0.40;95.29;101444.63;4981055;28;20047;-72
2021/04/07 00:40:15;;;;;;;8.10;1.67;;;;;;;0.43;95.49;101444.50;4977378;28;20037;-72
2021/04/07 00:42:43;;;;;;;8.10;1.42;;;;;;;0.46;94.92;101447.00;4972873;28;20050;-72
2021/04/07 00:45:10;;;;;;;8.35;1.60;;;;;;;0.49;94.91;101441.56;4983218;28;20026;-72
2021/04/07 00:47:36;;;;;;;6.13;1.10;;;;;;;0.53;94.43;101447.53;4982812;28;20034;-72
2021/04/07 00:50:04;;;;;;;11.15;1.70;;;;;;;0.52;94.06;101441.44;4986727;28;20073;-72
2021/04/07 00:52:29;;;;;;;11.02;2.03;;;;;;;0.33;93.26;101396.81;4984782;28;20042;-72
2021/04/07 00:54:55;;;;;;;7.47;1.92;;;;;;;0.56;93.13;101432.50;4985710;28;20089;-72
2021/04/07 00:57:22;;;;;;;18.58;2.47;;;;;;;0.64;91.91;101421.59;4987425;28;20385;-72
2021/04/07 00:59:48;;;;;;;14.13;2.55;;;;;;;0.78;90.82;101428.81;4985153;28;20088;-72
2021/04/07 01:02:15;;;;;;;13.82;2.25;;;;;;;0.85;90.48;101429.34;4983212;28;20448;-72
2021/04/07 01:04:41;;;;;;;18.80;2.83;;;;;;;0.91;90.50;101456.19;4981541;28;20034;-72
2021/04/07 01:07:09;;;;;;;15.27;2.72;;;;;;;0.88;89.97;101426.59;4985048;28;20034;-72
2021/04/07 01:09:34;;;;;;;19.33;2.65;;;;;;;0.22;89.94;101301.97;4975146;28;20536;-72
2021/04/07 01:12:00;;;;;;;16.98;2.83;;;;;;;0.87;89.58;101403.84;4973137;28;20041;-73
2021/04/07 01:14:25;;;;;;;20.45;3.00;;;;;;;1.12;89.55;101449.94;4987413;28;20132;-72
2021/04/07 01:16:51;;;;;;;18.00;2.65;;;;;;;0.87;90.13;101412.59;4977468;28;20061;-72
2021/04/07 01:19:21;;;;;;;17.33;2.72;;;;;;;1.04;90.36;101439.81;4982736;28;20034;-73
2021/04/07 01:21:46;;;;;;;15.65;2.80;;;;;;;1.02;91.02;101441.66;4985154;28;20483;-73
2021/04/07 01:24:12;;;;;;;18.70;2.33;;;;;;;1.09;90.62;101444.84;4979565;28;20041;-73
2021/04/07 01:26:37;;;;;;;17.73;2.58;;;;;;;1.12;89.80;101428.91;4984027;28;20038;-73
2021/04/07 01:29:04;;;;;;;14.00;2.85;;;;;;;1.03;89.57;101417.06;4978141;28;20160;-73
2021/04/07 01:31:31;;;;;;;13.63;2.30;;;;;;;1.12;89.57;101434.16;4984152;28;20095;-73
2021/04/07 01:33:57;;;;;;;16.60;3.22;;;;;;;1.09;89.92;101432.53;5001667;28;20034;-73
2021/04/07 01:36:24;;;;;;;12.15;2.50;;;;;;;1.10;89.45;101426.38;4979709;28;20045;-73
2021/04/07 01:38:50;;;;;;;14.00;2.35;;;;;;;1.11;89.50;101429.81;4981877;28;20034;-73
2021/04/07 01:41:16;;;;;;;9.20;2.08;;;;;;;0.89;89.19;101392.31;4980454;28;20113;-73
2021/04/07 01:43:43;;;;;;;17.73;2.35;;;;;;;0.98;90.05;101419.09;4982126;28;20062;-73
2021/04/07 01:46:08;;;;;;;11.45;1.88;;;;;;;0.58;90.15;101374.63;4981855;28;20515;-73
2021/04/07 01:48:34;;;;;;;10.88;2.08;;;;;;;0.88;90.62;101422.16;4988123;28;20035;-73
2021/04/07 01:51:00;;;;;;;15.88;2.28;;;;;;;0.81;91.18;101414.69;4981002;28;20539;-72
2021/04/07 01:53:26;;;;;;;16.15;2.00;;;;;;;0.73;92.75;101405.38;4979940;28;20030;-73
2021/04/07 01:55:52;;;;;;;14.80;1.90;;;;;;;0.76;93.13;101407.00;4979151;28;20037;-73
2021/04/07 01:58:17;;;;;;;19.00;2.63;;;;;;;0.60;93.25;101381.50;4987454;28;20485;-73
2021/04/07 02:00:43;;;;;;;18.02;2.50;;;;;;;0.80;93.67;101405.94;4965453;28;20358;-72
2021/04/07 02:03:08;;;;;;;19.30;2.45;;;;;;;0.82;94.11;101401.47;4985551;28;20057;-73
2021/04/07 02:05:34;;;;;;;11.13;2.92;;;;;;;0.81;93.89;101396.28;4981744;28;20034;-73
2021/04/07 02:07:59;;;;;;;10.25;2.00;;;;;;;-0.94;93.61;101109.00;4983806;28;20118;-73
2021/04/07 02:10:25;;;;;;;20.70;2.70;;;;;;;0.84;93.77;101422.38;4982495;28;20148;-72
2021/04/07 02:12:56;;;;;;;11.23;2.13;;;;;;;0.81;92.29;101423.41;4986883;28;20030;-71
2021/04/07 02:15:25;;;;;;;11.40;2.22;;;;;;;0.55;91.35;101348.50;4984956;28;20121;-72
2021/04/07 02:17:51;;;;;;;14.40;2.15;;;;;;;0.81;92.09;101402.38;4985110;28;20030;-72
2021/04/07 02:20:17;;;;;;;11.65;1.80;;;;;;;0.71;93.00;101399.34;4982246;28;20121;-72
2021/04/07 02:22:44;;;;;;;17.20;1.80;;;;;;;0.65;93.83;101393.56;4985693;28;20153;-73
2021/04/07 02:25:12;;;;;;;11.65;2.15;;;;;;;0.61;94.60;101392.84;4982820;28;20031;-73
2021/04/07 02:27:38;;;;;;;12.27;2.33;;;;;;;0.57;95.01;101383.41;4981501;28;20081;-73
2021/04/07 02:30:06;;;;;;;11.07;2.10;;;;;;;0.57;94.99;101371.16;4982461;28;20034;-73
2021/04/07 02:32:32;;;;;;;17.05;2.78;;;;;;;0.59;95.35;101385.06;4979609;28;20113;-73
2021/04/07 02:34:58;;;;;;;15.60;2.58;;;;;;;0.65;95.22;101380.41;4983301;28;20096;-73
2021/04/07 02:37:24;;;;;;;20.42;3.70;;;;;;;0.80;93.54;101382.28;4986284;28;20507;-74
2021/04/07 02:39:49;;;;;;;22.35;3.50;;;;;;;1.02;90.32;101399.59;4985171;28;20034;-73
2021/04/07 02:42:18;;;;;;;24.38;3.85;;;;;;;1.21;90.29;101395.13;4983083;28;20511;-74
2021/04/07 02:44:44;;;;;;;17.80;3.65;;;;;;;1.05;90.60;101352.13;4980400;28;20726;-74
2021/04/07 02:47:09;;;;;;;15.57;2.83;;;;;;;1.33;90.08;101392.78;4967235;28;20042;-73
2021/04/07 02:49:35;;;;;;;19.45;2.88;;;;;;;1.38;89.70;101381.09;4985087;28;20030;-73
2021/04/07 02:52:02;;;;;;;26.55;4.30;;;;;;;1.40;89.46;101378.38;4982039;28;20117;-73
2021/04/07 02:54:27;;;;;;;24.05;3.50;;;;;;;1.41;89.77;101384.50;4973862;28;20034;-73
2021/04/07 02:56:53;;;;;;;17.20;3.03;;;;;;;1.45;89.87;101381.63;4979040;28;20042;-73
2021/04/07 02:59:18;;;;;;;14.18;2.45;;;;;;;1.49;90.03;101393.69;4977772;28;20404;-72
2021/04/07 03:01:44;;;;;;;19.65;3.10;;;;;;;1.50;90.00;101392.75;4982739;28;20030;-71
2021/04/07 03:04:09;;;;;;;17.80;2.75;;;;;;;1.37;90.80;101381.19;4981597;28;20046;-71
2021/04/07 03:06:35;;;;;;;15.55;2.47;;;;;;;1.43;90.81;101391.34;4983281;28;20116;-71
2021/04/07 03:09:02;;;;;;;15.18;2.50;;;;;;;1.41;90.49;101398.50;4984434;28;20049;-72
2021/04/07 03:11:28;;;;;;;10.82;2.00;;;;;;;1.34;91.30;101395.34;4981764;28;20448;-72
2021/04/07 03:13:54;;;;;;;15.98;2.35;;;;;;;1.27;91.20;101386.06;4984962;28;20034;-72
2021/04/07 03:16:20;;;;;;;12.90;2.15;;;;;;;0.96;91.52;101349.97;4982720;28;20072;-72
2021/04/07 03:18:45;;;;;;;9.10;2.50;;;;;;;1.14;92.74;101375.34;4984319;28;20089;-72
2021/04/07 03:21:11;;;;;;;14.40;2.08;;;;;;;1.11;93.14;101383.38;4982068;28;20042;-73
2021/04/07 03:23:36;;;;;;;12.23;2.22;;;;;;;1.05;93.60;101376.66;4985745;28;20137;-73
2021/04/07 03:26:03;;;;;;;14.05;2.38;;;;;;;0.96;93.31;101358.69;4984222;28;20080;-73
2021/04/07 03:28:29;;;;;;;17.80;2.55;;;;;;;0.89;93.91;101355.53;4986115;28;20034;-73
2021/04/07 03:30:55;;;;;;;15.80;2.50;;;;;;;0.91;94.09;101360.72;4972858;28;20129;-73
2021/04/07 03:33:29;;;;;;;14.75;2.50;;;;;;;1.00;94.13;101375.19;4979270;28;20409;-73
2021/04/07 03:35:56;;;;;;;19.60;3.28;;;;;;;1.01;94.60;101366.38;4983306;28;20026;-73
2021/04/07 03:38:22;;;;;;;15.80;2.28;;;;;;;0.67;94.76;101299.75;4978011;28;20441;-74
2021/04/07 03:40:48;;;;;;;20.90;3.13;;;;;;;1.09;94.49;101356.31;4967185;28;20247;-73
2021/04/07 03:43:16;;;;;;;17.15;2.17;;;;;;;1.12;94.23;101353.53;4976903;28;20026;-73
2021/04/07 03:45:46;;;;;;;19.73;2.83;;;;;;;1.08;94.49;101365.13;4967714;28;20037;-73
2021/04/07 03:48:13;;;;;;;19.95;2.60;;;;;;;0.96;94.96;101340.31;4965230;28;21046;-73
2021/04/07 03:50:40;;;;;;;17.83;2.88;;;;;;;0.64;94.31;101308.66;4965927;28;20022;-73
2021/04/07 03:53:06;;;;;;;20.98;2.92;;;;;;;0.86;95.08;101339.94;4962211;28;20073;-73
2021/04/07 03:55:32;;;;;;;14.68;2.08;;;;;;;0.87;95.12;101353.94;4967797;28;20045;-73
2021/04/07 03:57:57;;;;;;;12.07;2.28;;;;;;;0.85;94.96;101356.63;4964707;28;20042;-74
2021/04/07 04:00:23;;;;;;;8.82;1.85;;;;;;;0.86;94.96;101357.47;4970380;28;20093;-73
2021/04/07 04:02:49;;;;;;;7.50;1.85;;;;;;;0.79;95.24;101343.81;4963528;28;20603;-73
2021/04/07 04:05:15;;;;;;;10.07;2.08;;;;;;;0.60;96.18;101314.97;4963361;28;20937;-72
2021/04/07 04:07:40;;;;;;;11.90;1.70;;;;;;;0.81;96.00;101349.84;4972459;28;20034;-72
2021/04/07 04:10:06;;;;;;;9.00;2.10;;;;;;;0.86;95.97;101329.44;4969072;28;20400;-72
2021/04/07 04:12:32;;;;;;;10.65;2.00;;;;;;;0.84;96.26;101330.44;4967944;28;20058;-72
2021/04/07 04:14:58;;;;;;;17.50;2.78;;;;;;;0.39;96.57;101261.75;4968408;28;20234;-72
2021/04/07 04:17:23;;;;;;;11.32;2.30;;;;;;;0.78;96.26;101321.06;4970775;28;20102;-72
2021/04/07 04:19:49;;;;;;;9.73;2.22;;;;;;;0.79;96.45;101314.91;4962074;28;20045;-72
2021/04/07 04:22:16;;;;;;;12.63;2.80;;;;;;;0.77;95.70;101308.88;4966002;28;20846;-72
2021/04/07 04:24:42;;;;;;;20.67;2.83;;;;;;;0.75;96.24;101301.06;4988888;28;20026;-72
2021/04/07 04:27:08;;;;;;;13.35;2.33;;;;;;;0.76;96.13;101305.41;4967246;28;20563;-71
2021/04/07 04:29:34;;;;;;;11.18;2.92;;;;;;;0.71;96.42;101304.78;4972732;28;20049;-72
2021/04/07 04:32:00;;;;;;;17.60;3.58;;;;;;;0.60;96.46;101296.59;4971454;28;20093;-72
2021/04/07 04:34:26;;;;;;;15.90;3.35;;;;;;;0.72;96.29;101314.34;4971471;28;20038;-72
2021/04/07 04:36:51;;;;;;;13.40;2.80;;;;;;;0.69;96.58;101306.63;4992636;28;20053;-73
2021/04/07 04:39:17;;;;;;;20.23;3.13;;;;;;;0.73;96.39;101313.44;4976123;28;20429;-73
2021/04/07 04:41:43;;;;;;;20.88;3.42;;;;;;;0.76;96.55;101304.53;4978146;28;20106;-73
2021/04/07 04:44:08;;;;;;;20.20;3.45;;;;;;;0.79;96.50;101300.94;4984188;28;20638;-74
2021/04/07 04:46:33;;;;;;;21.25;3.47;;;;;;;0.83;97.03;101308.56;4969852;28;20038;-74
2021/04/07 04:48:59;;;;;;;28.30;4.15;;;;;;;0.91;96.84;101308.19;4986387;28;20291;-74
2021/04/07 04:51:24;;;;;;;26.95;3.67;;;;;;;0.96;97.40;101300.03;4983828;28;20092;-73
2021/04/07 04:53:50;;;;;;;30.27;3.95;;;;;;;1.00;97.45;101297.19;4979628;28;20456;-73
2021/04/07 04:56:15;;;;;;;20.50;3.63;;;;;;;1.12;98.22;101289.56;4972319;28;20496;-73
2021/04/07 04:58:41;;;;;;;24.45;3.60;;;;;;;1.11;97.89;101266.84;4985798;28;20508;-74
2021/04/07 05:01:06;;;;;;;22.77;3.80;;;;;;;1.20;98.65;101264.56;4982698;28;20421;-73
2021/04/07 05:03:31;;;;;;;31.00;4.25;;;;;;;1.36;98.60;101267.22;4967522;28;20074;-73
2021/04/07 05:05:57;;;;;;;29.02;4.53;;;;;;;1.49;99.27;101271.84;4986254;28;20153;-73
2021/04/07 05:08:22;;;;;;;37.67;4.03;;;;;;;1.63;99.91;101268.44;4987858;28;20228;-73
2021/04/07 05:10:48;;;;;;;39.55;5.72;;;;;;;1.47;99.92;101207.94;4981999;28;20417;-73
2021/04/07 05:13:15;;;;;;;37.33;5.80;;;;;;;1.96;100.00;101262.25;4988436;28;20381;-73
2021/04/07 05:15:41;;;;;;;51.67;7.07;;;;;;;2.13;100.00;101270.00;4989108;28;20042;-73
2021/04/07 05:18:14;;;;;;;55.10;7.03;;;;;;;2.25;100.00;101254.44;4988375;28;20034;-74
2021/04/07 05:20:40;;;;;;;49.53;7.30;;;;;;;2.43;100.00;101269.19;4984042;28;20257;-74
2021/04/07 05:23:05;;;;;;;63.42;7.65;;;;;;;2.57;100.00;101273.66;4987929;28;20046;-74
2021/04/07 05:25:31;;;;;;;49.53;7.65;;;;;;;2.62;100.00;101261.97;4984931;28;20049;-74
2021/04/07 05:27:56;;;;;;;41.38;5.13;;;;;;;2.74;100.00;101264.72;4983466;28;20125;-74
2021/04/07 05:30:22;;;;;;;41.65;5.80;;;;;;;2.86;100.00;101267.56;4981346;28;20129;-74
2021/04/07 05:32:48;;;;;;;51.85;6.47;;;;;;;2.92;100.00;101267.19;4981429;28;20082;-74
2021/04/07 05:35:13;;;;;;;51.22;6.97;;;;;;;2.91;100.00;101242.63;4985745;28;20038;-75
2021/04/07 05:37:39;;;;;;;48.03;7.53;;;;;;;3.10;99.45;101275.78;4980461;28;20405;-75
2021/04/07 05:40:05;;;;;;;50.92;7.18;;;;;;;3.10;99.04;101264.38;4987612;28;20085;-76
2021/04/07 05:42:31;;;;;;;49.85;6.80;;;;;;;3.25;98.62;101266.06;4974669;28;20081;-76
2021/04/07 05:44:56;;;;;;;48.95;6.15;;;;;;;3.14;98.39;101250.06;4983118;28;20125;-76
2021/04/07 05:47:21;;;;;;;51.75;7.88;;;;;;;3.36;97.91;101270.69;4964452;28;20104;-76
2021/04/07 05:49:47;;;;;;;54.92;7.28;;;;;;;3.37;98.16;101280.31;4985884;28;20441;-74
2021/04/07 05:52:12;;;;;;;41.97;6.75;;;;;;;3.42;98.11;101274.72;4974425;28;20512;-74
2021/04/07 05:54:38;;;;;;;57.25;7.47;;;;;;;3.47;97.54;101283.19;4979372;28;20030;-74
2021/04/07 05:57:04;;;;;;;54.90;7.45;;;;;;;3.55;97.57;101293.25;4982779;28;20033;-74
2021/04/07 05:59:29;;;;;;;65.30;8.82;;;;;;;3.63;97.21;101306.84;4974707;28;20114;-74
2021/04/07 06:01:55;;;;;;;46.25;7.75;;;;;;;3.67;96.56;101311.81;4978118;28;20031;-73
2021/04/07 06:04:20;;;;;;;57.17;8.18;;;;;;;3.70;96.45;101302.84;4980222;28;20053;-74
2021/04/07 06:06:45;;;;;;;49.75;7.30;;;;;;;3.61;95.48;101277.88;4971270;28;20061;-73
2021/04/07 06:09:12;;;;;;;60.22;8.00;;;;;;;3.42;95.62;101251.81;4926216;28;20502;-73
2021/04/07 06:11:37;;;;;;;56.03;8.32;;;;;;;3.81;95.00;101323.31;4973099;28;20508;-73
2021/04/07 06:14:02;;;;;;;53.80;7.60;;;;;;;3.89;94.81;101322.81;4981844;28;20030;-73
2021/04/07 06:16:28;;;;;;;63.50;7.63;;;;;;;3.88;94.80;101323.75;4982503;28;20088;-74
2021/04/07 06:18:53;;;;;;;63.90;8.77;;;;;;;3.92;94.34;101323.47;4980317;28;20031;-73
2021/04/07 06:21:19;;;;;;;52.97;9.20;;;;;;;4.01;93.91;101329.97;4977210;28;20023;-72
2021/04/07 06:23:44;;;;;;;53.55;8.30;;;;;;;4.02;93.84;101349.28;4985281;28;20568;-73
2021/04/07 06:26:10;;;;;;;58.17;8.18;;;;;;;4.07;93.84;101358.59;4977187;28;20050;-73
2021/04/07 06:28:35;;;;;;;56.53;8.57;;;;;;;4.07;93.22;101357.75;4977821;28;20057;-73
2021/04/07 06:31:02;;;;;;;57.42;8.93;;;;;;;4.19;93.62;101378.13;4985811;28;20056;-73
2021/04/07 06:33:29;;;;;;;60.45;8.45;;;;;;;4.24;92.78;101378.69;4984501;28;20022;-73
2021/04/07 06:36:04;;;;;;;58.83;8.15;;;;;;;4.20;92.22;101361.31;4985121;28;20417;-73
2021/04/07 06:38:31;;;;;;;50.75;6.55;;;;;;;4.38;92.20;101384.88;4988778;28;20046;-74
2021/04/07 06:41:00;;;;;;;49.97;8.40;;;;;;;4.35;90.71;101375.31;4980761;28;20030;-73
2021/04/07 06:43:27;;;;;;;39.92;7.07;;;;;;;4.42;90.30;101394.28;4977231;28;20022;-73
2021/04/07 06:45:53;;;;;;;54.15;7.00;;;;;;;4.43;90.14;101398.59;4993595;28;20036;-73
2021/04/07 06:48:20;;;;;;;51.42;7.63;;;;;;;4.43;90.11;101402.13;4982704;28;20049;-73
2021/04/07 06:50:48;;;;;;;48.70;8.27;;;;;;;4.51;90.08;101398.13;4982642;28;20426;-74
2021/04/07 06:53:16;;;;;;;54.65;8.43;;;;;;;4.55;89.64;101412.84;4987406;28;20041;-73
2021/04/07 06:55:42;;;;;;;44.78;7.90;;;;;;;4.57;89.64;101403.84;4974054;28;20085;-73
2021/04/07 06:58:09;;;;;;;55.30;6.88;;;;;;;4.63;89.23;101430.84;4977940;28;20057;-73
2021/04/07 07:00:37;;;;;;;56.17;8.25;;;;;;;4.60;87.96;101431.91;4965908;28;20033;-74
2021/04/07 07:03:13;;;;;;;52.97;7.33;;;;;;;4.67;88.12;101427.06;4977709;28;20034;-74
2021/04/07 07:05:42;;;;;;;55.13;7.32;;;;;;;4.53;88.63;101415.59;4977122;28;20094;-73
2021/04/07 07:08:09;;;;;;;;;;;;;;;4.72;88.73;101449.59;4979544;28;20042;-74
2021/04/07 07:10:43;;;;;;;45.92;6.82;;;;;;;4.74;88.46;101457.44;4971420;28;20435;-73
2021/04/07 07:13:10;;;;;;;43.30;6.78;;;;;;;4.75;88.83;101453.84;4970799;28;20573;-73
2021/04/07 07:15:36;;;;;;;48.20;8.32;;;;;;;4.74;89.38;101462.72;4972541;28;20069;-74
2021/04/07 07:18:03;;;;;;;64.10;8.32;;;;;;;4.74;89.62;101471.50;4959344;28;20054;-75
2021/04/07 07:20:40;;;;;;;57.65;8.40;;;;;;;4.60;89.39;101463.63;4967670;28;20768;-74
2021/04/07 07:23:06;;;;;;;42.65;6.88;;;;;;;4.78;88.42;101495.09;4966783;28;20133;-74
2021/04/07 07:25:32;;;;;;;39.75;6.63;;;;;;;4.55;87.32;101463.88;4970882;28;20299;-74
2021/04/07 07:28:05;;;;;;;34.28;5.28;;;;;;;4.48;88.17;101461.78;4968544;28;20492;-74
2021/04/07 07:30:42;;;;;;;40.33;6.45;;;;;;;4.75;87.61;101491.69;4965420;28;21267;-75
2021/04/07 07:33:22;;;;;;;30.13;5.22;;;;;;;4.79;87.33;101500.28;4965741;28;20434;-75
2021/04/07 07:35:51;;;;;;;37.05;5.55;;;;;;;4.52;87.14;101469.41;4968435;28;20035;-74
2021/04/07 07:38:24;;;;;;;31.27;5.63;;;;;;;4.84;86.66;101508.75;4970529;28;20018;-74
2021/04/07 07:40:59;;;;;;;36.50;6.00;;;;;;;4.93;86.68;101517.06;4968405;28;20081;-74
2021/04/07 07:43:25;;;;;;;37.72;6.15;;;;;;;4.68;86.59;101471.06;4984917;28;20030;-74
2021/04/07 07:45:50;;;;;;;39.10;6.68;;;;;;;4.97;87.48;101526.47;4971796;28;20036;-74
2021/04/07 07:48:20;;;;;;;43.28;5.85;;;;;;;4.99;86.39;101521.94;4964882;28;20038;-74
2021/04/07 07:50:47;;;;;;;36.00;6.05;;;;;;;5.02;86.85;101525.22;4968521;28;20330;-74
2021/04/07 07:53:21;;;;;;;45.40;6.13;;;;;;;5.04;86.95;101531.28;4971846;28;20031;-74
2021/04/07 07:55:52;;;;;;;39.90;6.53;;;;;;;5.08;86.51;101539.88;4968199;28;20034;-74
2021/04/07 07:58:26;;;;;;;49.63;7.13;;;;;;;5.15;87.00;101538.50;4971951;28;20060;-74
2021/04/07 08:01:07;;;;;;;46.55;7.35;;;;;;;5.30;86.13;101535.81;4969590;28;20052;-74
2021/04/07 08:03:32;;;;;;;40.85;6.82;;;;;;;5.33;85.17;101559.44;4973407;28;20592;-74
2021/04/07 08:06:00;;;;;;;43.25;6.78;;;;;;;5.39;85.32;101561.66;4969528;28;20058;-74
2021/04/07 08:08:26;;;;;;;45.50;6.88;;;;;;;5.44;84.20;101556.06;4991562;28;20536;-74
2021/04/07 08:10:54;;;;;;;41.90;6.93;;;;;;;5.21;83.77;101538.13;4973016;28;20560;-74
2021/04/07 08:13:19;;;;;;;42.53;6.35;;;;;;;5.35;82.86;101581.34;4972570;28;20085;-74
2021/04/07 08:15:45;;;;;;;44.95;6.65;;;;;;;5.40;82.52;101583.69;4972756;28;20035;-73
2021/04/07 08:18:12;;;;;;;37.13;6.90;;;;;;;5.43;83.42;101584.34;4969349;28;20536;-74
2021/04/07 08:20:38;;;;;;;44.25;6.80;;;;;;;5.45;82.41;101581.56;4973271;28;20038;-74
2021/04/07 08:23:07;;;;;;;37.60;8.15;;;;;;;5.58;81.67;101587.75;4977005;28;20417;-74
2021/04/07 08:25:33;;;;;;;41.50;6.63;;;;;;;5.67;80.87;101597.75;4977004;28;20117;-74
2021/04/07 08:28:00;;;;;;;37.25;5.55;;;;;;;5.78;80.51;101599.66;4970741;28;20037;-74
2021/04/07 08:30:26;;;;;;;34.95;5.28;;;;;;;5.88;80.45;101607.00;4972539;28;20069;-74
2021/04/07 08:32:53;;;;;;;34.05;6.00;;;;;;;5.99;79.98;101601.81;4980511;28;20579;-73
2021/04/07 08:35:20;;;;;;;36.97;6.57;;;;;;;6.03;79.15;101619.25;4985803;28;20378;-74
2021/04/07 08:38:06;;;;;;;43.55;6.10;;;;;;;6.11;79.36;101624.00;4988284;28;20408;-74
2021/04/07 08:40:38;;;;;;;42.10;6.57;;;;;;;6.12;78.54;101612.44;4982785;28;20033;-73
2021/04/07 08:43:04;;;;;;;33.60;5.75;;;;;;;6.21;77.92;101634.81;4979962;28;20072;-73
2021/04/07 08:45:48;;;;;;;34.00;5.75;;;;;;;6.23;77.21;101617.88;4987720;28;20065;-73
2021/04/07 08:48:19;;;;;;;28.40;5.05;;;;;;;6.46;76.85;101633.13;4989517;28;20078;-74
2021/04/07 08:51:00;;;;;;;32.20;5.25;;;;;;;6.37;75.65;101608.13;4986844;28;20715;-73
2021/04/07 08:53:31;;;;;;;39.33;5.82;;;;;;;6.73;75.33;101651.56;4986177;28;20077;-74
2021/04/07 08:55:57;;;;;;;26.58;4.80;;;;;;;6.67;73.75;101644.03;4983184;28;20488;-74
2021/04/07 08:58:26;;;;;;;35.05;4.80;;;;;;;6.55;73.59;101636.00;4989265;28;20125;-74
2021/04/07 09:00:57;;;;;;;36.00;4.75;;;;;;;6.83;73.57;101654.44;4984099;28;20061;-73
2021/04/07 09:03:30;;;;;;;31.77;4.80;;;;;;;7.04;72.77;101663.50;4987779;28;20147;-73
2021/04/07 09:05:56;;;;;;;26.40;4.72;;;;;;;7.31;71.92;101659.00;4989626;28;20460;-73
2021/04/07 09:08:23;;;;;;;29.17;4.93;;;;;;;7.64;71.77;101662.75;4980636;28;20042;-73
2021/04/07 09:10:56;;;;;;;30.33;5.80;;;;;;;8.43;69.06;101663.00;4983066;28;20504;-73
2021/04/07 09:13:22;;;;;;;30.98;5.43;;;;;;;9.28;66.42;101666.13;4985019;28;20557;-73
2021/04/07 09:15:55;;;;;;;27.45;6.15;;;;;;;9.73;62.38;101662.47;4972979;28;20121;-73
2021/04/07 09:18:31;;;;;;;30.67;5.47;;;;;;;9.77;63.24;101663.94;4985042;28;20587;-73
2021/04/07 09:20:57;;;;;;;33.20;5.70;;;;;;;9.84;61.15;101676.75;4995201;28;20370;-73
2021/04/07 09:23:29;;;;;;;31.13;5.25;;;;;;;9.94;60.93;101683.84;4961934;28;20074;-73
2021/04/07 09:26:09;;;;;;;30.25;5.90;;;;;;;9.92;59.79;101680.44;4980009;28;20018;-71
2021/04/07 09:28:46;;;;;;;28.05;5.35;;;;;;;9.60;60.43;101656.47;4981855;28;20439;-74
2021/04/07 09:31:32;;;;;;;32.58;5.93;;;;;;;9.52;60.66;101685.59;4971159;28;20030;-74
2021/04/07 09:33:58;;;;;;;37.75;5.75;;;;;;;9.11;60.73;101675.50;4970037;28;20030;-73
2021/04/07 09:36:29;;;;;;;31.65;5.53;;;;;;;9.17;62.90;101698.13;4973167;28;20109;-73
2021/04/07 09:38:56;;;;;;;33.10;6.68;;;;;;;8.78;64.34;101697.66;4976117;28;20058;-73
2021/04/07 09:41:27;;;;;;;35.15;6.15;;;;;;;8.34;65.54;101710.75;4964374;28;20053;-73
2021/04/07 09:43:54;;;;;;;36.25;6.53;;;;;;;8.06;67.09;101713.66;4967356;28;20022;-74
2021/04/07 09:46:20;;;;;;;29.90;6.05;;;;;;;7.89;66.36;101720.25;4979386;28;20027;-73
2021/04/07 09:48:55;;;;;;;29.23;5.50;;;;;;;7.51;67.25;101708.00;4975847;28;20401;-73
2021/04/07 09:51:30;;;;;;;27.63;5.15;;;;;;;7.44;66.79;101722.66;4977572;28;20350;-73
2021/04/07 09:54:10;;;;;;;34.53;5.55;;;;;;;7.41;68.18;101714.91;4981440;28;20030;-73
2021/04/07 09:57:04;;;;;;;32.65;5.30;;;;;;;7.50;67.55;101709.78;4977298;28;20080;-73
2021/04/07 09:59:36;;;;;;;26.23;4.85;;;;;;;7.32;66.38;101681.94;4982623;28;20046;-73
2021/04/07 10:02:08;;;;;;;28.83;4.63;;;;;;;7.62;65.27;101734.63;4975315;28;20037;-73
2021/04/07 10:04:36;;;;;;;23.35;4.10;;;;;;;7.26;64.13;101679.69;4982895;28;20038;-74
2021/04/07 10:07:20;;;;;;;22.40;4.03;;;;;;;7.56;64.58;101743.00;4984266;28;20046;-73
2021/04/07 10:09:48;;;;;;;25.38;5.07;;;;;;;7.66;64.42;101744.06;4979705;28;20066;-73
2021/04/07 10:12:15;;;;;;;40.90;7.13;;;;;;;7.77;63.56;101753.06;4985427;28;20030;-73
2021/04/07 10:14:55;;;;;;;28.02;4.65;;;;;;;7.81;63.71;101752.72;4975224;28;20124;-73
2021/04/07 10:17:26;;;;;;;24.42;4.40;;;;;;;7.77;62.38;101751.22;4957032;28;20033;-71
2021/04/07 10:19:52;;;;;;;23.65;4.63;;;;;;;7.72;62.88;101750.75;4983146;28;20030;-73
2021/04/07 10:22:27;;;;;;;30.50;4.68;;;;;;;7.78;62.92;101760.91;4973530;28;20030;-73
2021/04/07 10:24:59;;;;;;;28.77;4.75;;;;;;;7.50;64.20;101727.53;4975594;28;20038;-72
2021/04/07 10:27:25;;;;;;;25.33;4.50;;;;;;;7.66;64.13;101761.81;4974272;28;20506;-73
2021/04/07 10:30:09;;;;;;;28.80;4.57;;;;;;;7.81;64.40;101757.16;4973043;28;20110;-73
2021/04/07 10:32:45;;;;;;;23.75;4.50;;;;;;;7.90;64.22;101769.78;4976040;28;20077;-73
2021/04/07 10:35:17;;;;;;;21.30;4.47;;;;;;;7.98;64.05;101787.84;4978022;28;20157;-73
2021/04/07 10:37:55;;;;;;;15.45;3.75;;;;;;;7.75;64.49;101800.97;4978077;28;20057;-73
2021/04/07 10:40:23;;;;;;;17.33;3.03;;;;;;;7.35;66.73;101814.44;4975092;28;20041;-73
2021/04/07 10:42:50;;;;;;;17.08;3.38;;;;;;;7.09;68.23;101774.66;4969560;28;20073;-73
2021/04/07 10:45:21;;;;;;;18.35;3.70;;;;;;;6.99;69.41;101813.41;4974312;28;20034;-73
2021/04/07 10:47:47;;;;;;;13.48;2.78;;;;;;;6.86;70.79;101824.88;4973441;28;20436;-73
2021/04/07 10:50:13;;;;;;;22.05;3.15;;;;;;;6.68;72.72;101821.66;4975861;28;20053;-74
2021/04/07 10:52:46;;;;;;;18.15;2.67;;;;;;;6.06;74.06;101764.75;4973966;28;20026;-76
2021/04/07 10:55:25;;;;;;;17.15;3.30;;;;;;;6.13;74.33;101813.78;4973046;28;20113;-73
2021/04/07 10:57:55;;;;;;;21.00;4.68;;;;;;;6.15;74.22;101834.88;4975818;28;20026;-72
2021/04/07 11:00:39;;;;;;;14.40;2.78;;;;;;;6.12;74.64;101835.06;4978749;28;20031;-74
2021/04/07 11:03:06;;;;;;;24.70;3.97;;;;;;;6.04;75.01;101830.25;4979166;28;20023;-73
2021/04/07 11:05:46;;;;;;;26.13;4.50;;;;;;;5.97;76.24;101828.94;4954682;28;20052;-72
2021/04/07 11:08:16;;;;;;;21.90;3.67;;;;;;;5.87;76.02;101810.13;4951300;28;20039;-73
2021/04/07 11:10:51;;;;;;;25.80;3.90;;;;;;;5.93;77.37;101819.47;4970915;28;20071;-72
2021/04/07 11:13:18;;;;;;;23.20;4.05;;;;;;;6.11;76.32;101818.31;4975574;28;20061;-70
2021/04/07 11:15:44;;;;;;;28.60;4.60;;;;;;;6.28;76.01;101826.97;4966035;28;20030;-71
2021/04/07 11:18:10;;;;;;;22.42;3.50;;;;;;;6.60;75.07;101829.28;4968510;28;20724;-74
2021/04/07 11:20:39;;;;;;;18.85;3.38;;;;;;;6.64;71.88;101775.06;4973855;28;20153;-73
2021/04/07 11:23:04;;;;;;;22.98;3.35;;;;;;;7.09;71.57;101805.66;4959923;28;20117;-72
2021/04/07 11:25:32;;;;;;;18.42;3.22;;;;;;;7.47;69.20;101824.19;4976873;28;20505;-73
2021/04/07 11:27:58;;;;;;;21.10;3.53;;;;;;;7.57;67.93;101819.09;4974417;28;20034;-73
2021/04/07 11:30:25;;;;;;;18.85;3.92;;;;;;;7.42;67.02;101830.81;4978190;28;20077;-73